createdAt,value
2023-02-28T00:01:28.283Z,48.90
2023-02-28T00:03:55.094Z,48.70
2023-02-28T00:06:22.161Z,48.50
2023-02-28T00:08:48.967Z,46.00
2023-02-28T00:11:16.537Z,45.00
2023-02-28T00:13:49.657Z,47.40
2023-02-28T00:16:22.215Z,73.50
2023-02-28T00:18:49.556Z,85.10
2023-02-28T00:21:18.623Z,82.20
2023-02-28T00:23:45.391Z,73.00
2023-02-28T00:26:12.371Z,64.20
2023-02-28T00:28:38.976Z,52.70
2023-02-28T00:31:05.891Z,45.40
2023-02-28T00:33:32.781Z,36.10
2023-02-28T00:36:11.165Z,30.60
2023-02-28T00:38:39.276Z,30.70
2023-02-28T00:41:06.416Z,27.30
2023-02-28T00:43:35.193Z,26.60
2023-02-28T00:46:03.226Z,27.40
2023-02-28T00:48:30.319Z,26.00
2023-02-28T00:50:56.901Z,25.10
2023-02-28T00:53:23.666Z,23.80
2023-02-28T00:55:51.263Z,25.50
2023-02-28T00:58:18.395Z,25.40
2023-02-28T01:00:49.101Z,24.70
2023-02-28T01:03:18.144Z,24.30
2023-02-28T01:05:45.475Z,26.80
2023-02-28T01:08:12.362Z,26.90
2023-02-28T01:10:38.879Z,28.30
2023-02-28T01:13:05.741Z,26.00
2023-02-28T01:15:32.906Z,26.00
2023-02-28T01:17:59.518Z,24.30
2023-02-28T01:20:26.095Z,26.00
2023-02-28T01:22:52.729Z,27.50
2023-02-28T01:25:19.376Z,26.30
2023-02-28T01:27:45.945Z,25.00
2023-02-28T01:30:12.793Z,24.60
2023-02-28T01:32:39.343Z,26.40
2023-02-28T01:35:06.253Z,27.60
2023-02-28T01:37:32.872Z,30.20
2023-02-28T01:39:59.363Z,43.00
2023-02-28T01:42:25.940Z,34.60
2023-02-28T01:45:19.956Z,37.20
2023-02-28T01:47:48.861Z,36.00
2023-02-28T01:50:21.541Z,32.20
2023-02-28T01:52:49.013Z,35.40
2023-02-28T01:55:17.578Z,32.60
2023-02-28T01:57:49.634Z,30.90
2023-02-28T02:00:20.983Z,29.60
2023-02-28T02:02:52.038Z,30.70
2023-02-28T02:05:24.687Z,30.30
2023-02-28T02:07:56.953Z,26.70
2023-02-28T02:10:49.719Z,28.30
2023-02-28T02:13:26.442Z,27.70
2023-02-28T02:16:12.317Z,28.90
2023-02-28T02:18:53.590Z,32.50
2023-02-28T02:21:51.113Z,39.20
2023-02-28T02:25:17.163Z,46.80
2023-02-28T02:28:20.552Z,45.30
2023-02-28T02:31:00.474Z,35.60
2023-02-28T02:33:52.412Z,33.70
2023-02-28T02:36:25.058Z,32.40
2023-02-28T02:38:58.015Z,30.00
2023-02-28T02:41:51.468Z,29.90
2023-02-28T02:44:32.400Z,28.90
2023-02-28T02:47:06.833Z,27.10
2023-02-28T02:49:36.340Z,26.50
2023-02-28T02:52:08.901Z,26.70
2023-02-28T02:54:38.931Z,27.60
2023-02-28T02:57:17.392Z,27.30
2023-02-28T02:59:44.195Z,28.10
2023-02-28T03:02:16.183Z,27.70
2023-02-28T03:05:01.820Z,28.30
2023-02-28T03:07:28.448Z,25.50
2023-02-28T03:09:57.766Z,27.50
2023-02-28T03:12:34.652Z,27.90
2023-02-28T03:15:54.934Z,25.50
2023-02-28T03:18:49.344Z,24.80
2023-02-28T03:21:42.639Z,24.20
2023-02-28T03:26:44.312Z,26.40
2023-02-28T03:29:44.022Z,26.70
2023-02-28T03:32:22.404Z,24.40
2023-02-28T03:35:06.404Z,25.90
2023-02-28T03:37:36.671Z,24.50
2023-02-28T03:40:09.423Z,25.10
2023-02-28T03:45:09.752Z,24.20
2023-02-28T03:47:43.684Z,27.30
2023-02-28T03:50:21.157Z,27.40
2023-02-28T03:53:04.967Z,27.30
2023-02-28T03:55:52.282Z,28.70
2023-02-28T03:58:37.841Z,27.10
2023-02-28T04:01:26.295Z,29.10
2023-02-28T04:03:52.890Z,29.90
2023-02-28T04:06:22.148Z,29.10
2023-02-28T04:08:49.196Z,31.20
2023-02-28T04:11:53.635Z,29.30
2023-02-28T04:14:20.132Z,30.70
2023-02-28T04:16:47.351Z,27.00
2023-02-28T04:19:15.082Z,27.80
2023-02-28T04:21:44.838Z,27.40
2023-02-28T04:24:15.406Z,26.50
2023-02-28T04:26:45.254Z,25.50
2023-02-28T04:29:15.918Z,26.20
2023-02-28T04:31:42.431Z,25.00
2023-02-28T04:34:08.983Z,28.60
2023-02-28T04:36:35.542Z,27.60
2023-02-28T04:39:02.562Z,26.20
2023-02-28T04:41:32.338Z,24.80
2023-02-28T04:43:59.312Z,25.30
2023-02-28T04:46:25.814Z,26.00
2023-02-28T04:48:52.325Z,28.90
2023-02-28T04:51:20.185Z,32.90
2023-02-28T04:53:47.614Z,36.30
2023-02-28T04:56:16.738Z,40.40
2023-02-28T04:58:43.928Z,41.90
2023-02-28T05:01:25.575Z,38.30
2023-02-28T05:03:54.822Z,32.70
2023-02-28T05:06:24.868Z,33.60
2023-02-28T05:08:52.923Z,30.70
2023-02-28T05:11:29.973Z,27.60
2023-02-28T05:13:56.780Z,28.30
2023-02-28T05:16:23.355Z,27.30
2023-02-28T05:18:49.931Z,27.00
2023-02-28T05:21:34.612Z,27.00
2023-02-28T05:24:09.096Z,28.50
2023-02-28T05:26:42.077Z,31.20
2023-02-28T05:29:09.718Z,31.30
2023-02-28T05:31:37.271Z,33.60
2023-02-28T05:34:06.685Z,33.00
2023-02-28T05:36:33.962Z,32.60
2023-02-28T05:39:00.650Z,34.00
2023-02-28T05:41:27.610Z,35.10
2023-02-28T05:43:54.382Z,36.60
2023-02-28T05:46:21.328Z,30.60
2023-02-28T05:48:48.759Z,30.90
2023-02-28T05:51:15.708Z,30.00
2023-02-28T05:53:42.274Z,30.60
2023-02-28T05:56:09.310Z,32.70
2023-02-28T05:58:35.916Z,37.00
2023-02-28T06:01:48.404Z,33.10
2023-02-28T06:04:30.668Z,35.70
2023-02-28T06:09:25.416Z,32.10
2023-02-28T06:11:52.097Z,32.30
2023-02-28T06:14:20.137Z,37.50
2023-02-28T06:16:47.529Z,44.40
2023-02-28T06:19:15.390Z,43.00
2023-02-28T06:21:42.212Z,42.10
2023-02-28T06:24:08.900Z,36.60
2023-02-28T06:26:36.221Z,37.40
2023-02-28T06:29:03.740Z,34.60
2023-02-28T06:31:30.937Z,32.70
2023-02-28T06:33:58.044Z,32.90
2023-02-28T06:36:24.782Z,32.60
2023-02-28T06:38:54.996Z,28.30
2023-02-28T06:41:28.007Z,26.50
2023-02-28T06:43:55.335Z,28.10
2023-02-28T06:46:22.587Z,28.00
2023-02-28T06:48:49.964Z,25.80
2023-02-28T06:51:24.529Z,25.40
2023-02-28T06:53:51.439Z,24.90
2023-02-28T06:56:20.455Z,25.70
2023-02-28T06:58:52.785Z,28.30
2023-02-28T07:01:19.915Z,32.20
2023-02-28T07:03:47.097Z,29.20
2023-02-28T07:06:13.695Z,27.80
2023-02-28T07:08:41.397Z,30.30
2023-02-28T07:11:07.957Z,31.40
2023-02-28T07:13:34.485Z,30.00
2023-02-28T07:16:05.698Z,29.20
2023-02-28T07:18:32.654Z,25.60
2023-02-28T07:21:03.189Z,26.60
2023-02-28T07:23:29.791Z,25.40
2023-02-28T07:25:56.269Z,25.40
2023-02-28T07:28:23.109Z,24.90
2023-02-28T07:30:50.194Z,24.50
2023-02-28T07:33:17.063Z,26.70
2023-02-28T07:35:44.318Z,27.50
2023-02-28T07:38:11.884Z,25.90
2023-02-28T07:40:38.442Z,28.60
2023-02-28T07:43:05.077Z,24.80
2023-02-28T07:45:34.854Z,26.80
2023-02-28T07:48:02.174Z,24.40
2023-02-28T07:50:31.070Z,24.40
2023-02-28T07:52:59.392Z,22.30
2023-02-28T07:55:26.041Z,23.80
2023-02-28T07:57:52.576Z,20.90
2023-02-28T08:00:19.506Z,20.60
2023-02-28T08:02:46.177Z,21.60
2023-02-28T08:05:12.878Z,23.80
2023-02-28T08:07:39.649Z,22.50
2023-02-28T08:10:07.292Z,21.90
2023-02-28T08:12:33.897Z,22.60
2023-02-28T08:15:00.478Z,21.90
2023-02-28T08:17:27.278Z,22.60
2023-02-28T08:19:53.842Z,22.20
2023-02-28T08:22:20.379Z,20.20
2023-02-28T08:24:49.594Z,18.50
2023-02-28T08:27:16.215Z,18.40
2023-02-28T08:29:42.673Z,18.70
2023-02-28T08:32:17.414Z,19.00
2023-02-28T08:34:50.205Z,19.10
2023-02-28T08:37:17.238Z,20.80
2023-02-28T08:39:43.788Z,23.10
2023-02-28T08:42:10.424Z,20.90
2023-02-28T08:44:37.005Z,21.20
2023-02-28T08:47:04.014Z,20.10
2023-02-28T08:49:30.537Z,21.20
2023-02-28T08:51:57.525Z,20.40
2023-02-28T08:54:24.803Z,17.70
2023-02-28T08:56:52.099Z,16.90
2023-02-28T08:59:18.723Z,19.10
2023-02-28T09:01:45.387Z,17.40
2023-02-28T09:04:13.275Z,18.00
2023-02-28T09:06:42.400Z,18.30
2023-02-28T09:09:09.960Z,17.20
2023-02-28T09:11:37.696Z,16.60
2023-02-28T09:14:04.686Z,16.40
2023-02-28T09:16:35.346Z,15.30
2023-02-28T09:19:02.704Z,16.60
2023-02-28T09:21:29.862Z,14.60
2023-02-28T09:23:56.861Z,14.90
2023-02-28T09:26:34.646Z,13.70
2023-02-28T09:29:05.894Z,14.20
2023-02-28T09:31:33.340Z,11.60
2023-02-28T09:34:00.436Z,12.30
2023-02-28T09:36:41.546Z,14.00
2023-02-28T09:41:52.409Z,9.10
2023-02-28T09:44:45.113Z,11.40
2023-02-28T09:47:17.425Z,11.20
2023-02-28T09:49:47.395Z,11.50
2023-02-28T09:52:30.897Z,10.20
2023-02-28T09:55:28.936Z,11.30
2023-02-28T09:57:58.058Z,11.80
2023-02-28T10:00:33.836Z,10.40
2023-02-28T10:03:09.324Z,10.30
2023-02-28T10:05:44.557Z,8.20
2023-02-28T10:08:25.550Z,9.60
2023-02-28T10:10:56.278Z,8.90
2023-02-28T10:13:38.377Z,9.70
2023-02-28T10:16:17.969Z,10.60
2023-02-28T10:18:51.416Z,9.40
2023-02-28T10:21:35.346Z,9.10
2023-02-28T10:24:32.702Z,9.30
2023-02-28T10:27:19.170Z,10.70
2023-02-28T10:29:53.409Z,10.10
2023-02-28T10:32:25.166Z,12.30
2023-02-28T10:35:01.016Z,10.30
2023-02-28T10:37:29.010Z,10.30
2023-02-28T10:39:57.010Z,10.70
2023-02-28T10:42:27.063Z,10.00
2023-02-28T10:45:16.787Z,9.90
2023-02-28T10:47:50.622Z,9.60
2023-02-28T10:50:52.630Z,10.60
2023-02-28T10:53:25.145Z,11.00
2023-02-28T10:56:02.150Z,8.50
2023-02-28T10:59:02.101Z,9.00
2023-02-28T11:01:46.055Z,9.70
2023-02-28T11:04:33.784Z,9.90
2023-02-28T11:07:19.966Z,10.20
2023-02-28T11:09:58.840Z,10.40
2023-02-28T11:12:55.711Z,9.30
2023-02-28T11:15:33.697Z,9.20
2023-02-28T11:18:01.416Z,9.60
2023-02-28T11:20:31.431Z,9.00
2023-02-28T11:22:59.637Z,12.90
2023-02-28T11:25:31.497Z,10.20
2023-02-28T11:28:06.801Z,9.90
2023-02-28T11:30:41.017Z,9.30
2023-02-28T11:33:57.452Z,11.60
2023-02-28T11:36:32.151Z,9.40
2023-02-28T11:39:10.774Z,8.90
2023-02-28T11:42:17.251Z,9.70
2023-02-28T11:45:23.575Z,8.80
2023-02-28T11:48:33.032Z,8.40
2023-02-28T11:51:24.921Z,7.20
2023-02-28T11:54:06.944Z,7.40
2023-02-28T11:56:55.383Z,7.50
2023-02-28T12:00:18.344Z,7.60
2023-02-28T12:03:11.249Z,7.20
2023-02-28T12:05:53.393Z,11.60
2023-02-28T12:08:48.456Z,7.90
2023-02-28T12:11:54.163Z,7.20
2023-02-28T12:14:54.917Z,6.60
2023-02-28T12:17:30.835Z,6.70
2023-02-28T12:20:14.837Z,6.50
2023-02-28T12:23:17.857Z,6.80
2023-02-28T12:26:20.731Z,6.40
2023-02-28T12:28:53.440Z,6.60
2023-02-28T12:34:03.009Z,8.20
2023-02-28T12:36:30.171Z,7.50
2023-02-28T12:39:22.905Z,10.90
2023-02-28T12:42:03.012Z,9.50
2023-02-28T12:44:46.898Z,9.10
2023-02-28T12:47:17.314Z,8.20
2023-02-28T12:50:03.179Z,9.10
2023-02-28T12:52:35.810Z,9.30
2023-02-28T12:55:16.928Z,9.10
2023-02-28T12:58:12.186Z,9.90
2023-02-28T13:01:03.028Z,9.60
2023-02-28T13:04:00.796Z,9.60
2023-02-28T13:06:58.232Z,9.90
2023-02-28T13:09:25.567Z,10.00
2023-02-28T13:11:54.047Z,9.60
2023-02-28T13:14:23.823Z,9.60
2023-02-28T13:16:59.403Z,9.50
2023-02-28T13:19:32.371Z,9.70
2023-02-28T13:22:00.180Z,10.10
2023-02-28T13:24:47.119Z,10.40
2023-02-28T13:27:15.612Z,9.20
2023-02-28T13:29:46.281Z,11.20
2023-02-28T13:32:13.373Z,10.80
2023-02-28T13:35:04.806Z,10.80
2023-02-28T13:37:36.581Z,10.00
2023-02-28T13:40:38.296Z,10.10
2023-02-28T13:43:09.176Z,9.70
2023-02-28T13:45:38.967Z,9.20
2023-02-28T13:48:19.353Z,8.10
2023-02-28T13:50:46.492Z,8.90
2023-02-28T13:53:16.770Z,9.10
2023-02-28T13:55:54.698Z,9.50
2023-02-28T13:58:59.017Z,10.80
2023-02-28T14:01:44.211Z,10.80
2023-02-28T14:04:47.316Z,10.80
2023-02-28T14:07:21.972Z,10.10
2023-02-28T14:10:09.237Z,10.00
2023-02-28T14:13:00.617Z,11.00
2023-02-28T14:16:02.887Z,8.90
2023-02-28T14:18:36.409Z,8.50
2023-02-28T14:21:36.139Z,8.20
2023-02-28T14:24:26.493Z,9.40
2023-02-28T14:27:24.775Z,9.50
2023-02-28T14:29:52.030Z,10.20
2023-02-28T14:32:59.572Z,9.40
2023-02-28T14:35:26.948Z,18.80
2023-02-28T14:37:54.918Z,13.10
2023-02-28T14:40:31.619Z,12.10
2023-02-28T14:43:05.026Z,11.50
2023-02-28T14:45:37.912Z,11.40
2023-02-28T14:48:10.288Z,12.40
2023-02-28T14:50:38.187Z,11.50
2023-02-28T14:53:07.476Z,12.50
2023-02-28T14:55:37.694Z,12.30
2023-02-28T14:58:08.018Z,15.70
2023-02-28T15:00:40.485Z,10.50
2023-02-28T15:03:35.742Z,10.20
2023-02-28T15:06:14.284Z,11.80
2023-02-28T15:08:41.754Z,11.70
2023-02-28T15:11:14.402Z,14.80
2023-02-28T15:13:46.574Z,12.40
2023-02-28T15:16:29.391Z,11.80
2023-02-28T15:21:57.606Z,14.20
2023-02-28T15:24:44.313Z,18.60
2023-02-28T15:27:36.503Z,17.60
2023-02-28T15:30:13.988Z,27.20
2023-02-28T15:32:42.014Z,25.60
2023-02-28T15:35:30.474Z,17.70
2023-02-28T15:38:06.022Z,13.40
2023-02-28T15:40:41.827Z,10.20
2023-02-28T15:43:30.705Z,10.00
2023-02-28T15:46:08.921Z,9.80
2023-02-28T15:49:00.483Z,10.40
2023-02-28T15:51:37.730Z,12.00
2023-02-28T15:54:24.952Z,12.10
2023-02-28T15:56:55.718Z,13.30
2023-02-28T15:59:31.111Z,12.80
2023-02-28T16:02:18.450Z,11.10
2023-02-28T16:05:06.599Z,10.40
2023-02-28T16:07:38.342Z,13.20
2023-02-28T16:10:07.444Z,14.40
2023-02-28T16:12:37.507Z,41.20
2023-02-28T16:15:21.357Z,52.00
2023-02-28T16:17:48.940Z,54.30
2023-02-28T16:20:25.716Z,46.00
2023-02-28T16:22:53.075Z,32.80
2023-02-28T16:25:41.813Z,83.70
2023-02-28T16:28:26.313Z,59.70
2023-02-28T16:30:57.507Z,81.70
2023-02-28T16:33:24.209Z,52.10
2023-02-28T16:35:50.820Z,73.30
2023-02-28T16:38:17.599Z,86.50
2023-02-28T16:40:44.779Z,88.00
2023-02-28T16:43:24.451Z,85.60
2023-02-28T16:46:00.790Z,76.30
2023-02-28T16:48:28.056Z,78.30
2023-02-28T16:50:55.350Z,79.30
2023-02-28T16:53:22.056Z,70.40
2023-02-28T16:55:48.725Z,64.80
2023-02-28T16:58:17.573Z,63.70
2023-02-28T17:00:44.172Z,64.20
2023-02-28T17:03:32.596Z,54.20
2023-02-28T17:06:04.617Z,47.80
2023-02-28T17:08:32.412Z,65.50
2023-02-28T17:11:00.173Z,90.10
2023-02-28T17:13:27.386Z,88.80
2023-02-28T17:15:54.209Z,124.00
2023-02-28T17:18:21.546Z,126.20
2023-02-28T17:20:48.687Z,126.30
2023-02-28T17:23:16.280Z,130.30
2023-02-28T17:25:53.674Z,136.70
2023-02-28T17:28:22.513Z,109.00
2023-02-28T17:30:49.694Z,91.40
2023-02-28T17:33:16.429Z,88.90
2023-02-28T17:35:43.091Z,83.70
2023-02-28T17:38:19.332Z,134.70
2023-02-28T17:40:45.921Z,119.90
2023-02-28T17:43:12.518Z,119.10
2023-02-28T17:45:41.412Z,91.90
2023-02-28T17:48:12.108Z,61.20
2023-02-28T17:50:38.949Z,50.70
2023-02-28T17:53:05.539Z,46.90
2023-02-28T17:55:34.274Z,50.10
2023-02-28T17:58:01.586Z,143.40
2023-02-28T18:00:33.840Z,154.80
2023-02-28T18:03:00.728Z,125.50
2023-02-28T18:05:27.492Z,88.40
2023-02-28T18:07:54.182Z,51.80
2023-02-28T18:10:21.769Z,47.80
2023-02-28T18:12:50.737Z,50.00
2023-02-28T18:15:22.699Z,62.10
2023-02-28T18:17:50.016Z,65.60
2023-02-28T18:20:48.612Z,98.80
2023-02-28T18:23:17.841Z,139.70
2023-02-28T18:25:44.518Z,146.30
2023-02-28T18:28:11.120Z,148.50
2023-02-28T18:30:37.808Z,150.50
2023-02-28T18:33:04.751Z,119.80
2023-02-28T18:35:34.841Z,94.70
2023-02-28T18:38:05.465Z,82.00
2023-02-28T18:40:32.429Z,81.30
2023-02-28T18:42:59.245Z,77.10
2023-02-28T18:45:26.412Z,70.00
2023-02-28T18:47:53.032Z,100.00
2023-02-28T18:50:19.689Z,115.60
2023-02-28T18:52:46.633Z,103.40
2023-02-28T18:55:18.139Z,92.60
2023-02-28T18:57:46.719Z,102.90
2023-02-28T19:00:19.231Z,115.90
2023-02-28T19:02:45.864Z,129.60
2023-02-28T19:05:12.631Z,141.10
2023-02-28T19:07:40.346Z,145.10
2023-02-28T19:10:08.789Z,127.40
2023-02-28T19:12:41.749Z,114.40
2023-02-28T19:15:10.007Z,113.40
2023-02-28T19:17:37.033Z,114.00
2023-02-28T19:20:09.065Z,116.60
2023-02-28T19:22:36.503Z,114.80
2023-02-28T19:25:05.659Z,114.20
2023-02-28T19:27:32.332Z,116.30
2023-02-28T19:29:59.044Z,113.30
2023-02-28T19:32:26.583Z,112.20
2023-02-28T19:34:53.321Z,114.00
2023-02-28T19:37:19.959Z,118.10
2023-02-28T19:39:46.568Z,117.50
2023-02-28T19:42:16.711Z,123.20
2023-02-28T19:44:44.539Z,130.50
2023-02-28T19:47:12.417Z,142.90
2023-02-28T19:49:40.429Z,130.20
2023-02-28T19:52:09.105Z,121.40
2023-02-28T19:54:37.186Z,107.20
2023-02-28T19:57:03.933Z,75.40
2023-02-28T19:59:39.277Z,67.60
2023-02-28T20:02:16.883Z,62.30
2023-02-28T20:04:48.112Z,60.70
2023-02-28T20:07:21.494Z,69.20
2023-02-28T20:09:48.434Z,77.30
2023-02-28T20:12:24.195Z,91.20
2023-02-28T20:14:52.803Z,90.50
2023-02-28T20:17:19.422Z,91.90
2023-02-28T20:19:46.150Z,88.00
2023-02-28T20:22:12.979Z,82.10
2023-02-28T20:24:39.700Z,112.50
2023-02-28T20:27:06.611Z,119.50
2023-02-28T20:29:34.636Z,92.20
2023-02-28T20:32:01.765Z,81.40
2023-02-28T20:34:28.603Z,65.70
2023-02-28T20:36:56.224Z,56.20
2023-02-28T20:39:23.346Z,62.40
2023-02-28T20:41:50.209Z,63.90
2023-02-28T20:44:54.867Z,65.80
2023-02-28T20:47:21.562Z,59.70
2023-02-28T20:49:48.093Z,61.40
2023-02-28T20:52:14.715Z,60.60
2023-02-28T20:54:41.292Z,63.80
2023-02-28T20:57:07.967Z,71.60
2023-02-28T20:59:34.746Z,122.50
2023-02-28T21:02:01.363Z,99.60
2023-02-28T21:04:28.019Z,96.20
2023-02-28T21:06:54.642Z,94.20
2023-02-28T21:09:21.311Z,99.60
2023-02-28T21:11:48.944Z,108.90
2023-02-28T21:14:17.465Z,114.00
2023-02-28T21:16:44.293Z,101.30
2023-02-28T21:19:11.426Z,108.50
2023-02-28T21:21:44.722Z,128.10
2023-02-28T21:24:14.537Z,161.80
2023-02-28T21:26:43.948Z,146.30
2023-02-28T21:29:12.098Z,158.70
2023-02-28T21:31:39.359Z,149.30
2023-02-28T21:34:08.232Z,156.60
2023-02-28T21:36:44.921Z,163.90
2023-02-28T21:39:18.028Z,147.10
2023-02-28T21:41:45.286Z,133.00
2023-02-28T21:44:22.256Z,123.50
2023-02-28T21:46:56.299Z,121.80
2023-02-28T21:49:23.607Z,117.30
2023-02-28T21:51:50.206Z,121.50
2023-02-28T21:54:17.029Z,113.10
2023-02-28T21:56:44.124Z,110.60
2023-02-28T21:59:11.173Z,96.00
2023-02-28T22:01:43.664Z,84.00
2023-02-28T22:04:20.677Z,81.90
2023-02-28T22:06:58.772Z,74.80
2023-02-28T22:09:33.289Z,84.00
2023-02-28T22:12:00.133Z,96.20
2023-02-28T22:14:27.030Z,104.50
2023-02-28T22:16:56.277Z,116.10
2023-02-28T22:19:23.686Z,121.20
2023-02-28T22:21:53.162Z,127.00
2023-02-28T22:24:23.637Z,129.00
2023-02-28T22:26:52.044Z,118.70
2023-02-28T22:29:18.951Z,123.70
2023-02-28T22:31:45.813Z,106.30
2023-02-28T22:34:12.743Z,96.70
2023-02-28T22:36:42.510Z,89.50
2023-02-28T22:39:10.213Z,83.00
2023-02-28T22:41:37.412Z,82.50
2023-02-28T22:44:06.836Z,76.50
2023-02-28T22:46:34.846Z,76.90
2023-02-28T22:49:03.920Z,72.70
2023-02-28T22:51:31.050Z,73.70
2023-02-28T22:53:57.847Z,80.60
2023-02-28T22:56:27.362Z,84.80
2023-02-28T22:58:56.514Z,88.70
2023-02-28T23:01:25.836Z,97.40
2023-02-28T23:03:53.399Z,123.40
2023-02-28T23:06:29.849Z,118.30
2023-02-28T23:09:01.024Z,86.20
2023-02-28T23:11:38.851Z,88.80
2023-02-28T23:14:06.514Z,92.50
2023-02-28T23:16:36.392Z,95.30
2023-02-28T23:19:07.724Z,106.70
2023-02-28T23:21:35.243Z,109.60
2023-02-28T23:24:04.933Z,110.00
2023-02-28T23:26:32.479Z,115.60
2023-02-28T23:29:00.192Z,113.20
2023-02-28T23:31:26.783Z,114.00
2023-02-28T23:33:55.860Z,111.60
2023-02-28T23:36:23.249Z,119.40
2023-02-28T23:38:51.658Z,118.50
2023-02-28T23:41:20.745Z,120.30
2023-02-28T23:43:48.308Z,120.40
2023-02-28T23:46:16.263Z,117.20
2023-02-28T23:48:43.183Z,110.60
2023-02-28T23:51:17.851Z,99.10
2023-02-28T23:53:47.659Z,95.80
2023-02-28T23:56:18.773Z,87.20
2023-02-28T23:58:46.155Z,76.90
